createdAt,value
2022-09-07T00:01:22.320Z,9.36
2022-09-07T00:03:54.946Z,9.34
2022-09-07T00:06:24.462Z,9.31
2022-09-07T00:08:53.291Z,9.28
2022-09-07T00:11:22.365Z,9.23
2022-09-07T00:13:51.409Z,9.17
2022-09-07T00:16:22.408Z,9.10
2022-09-07T00:18:51.732Z,9.04
2022-09-07T00:21:20.584Z,8.98
2022-09-07T00:23:49.984Z,8.93
2022-09-07T00:26:20.810Z,8.89
2022-09-07T00:28:50.357Z,8.88
2022-09-07T00:31:20.779Z,8.87
2022-09-07T00:33:50.825Z,8.86
2022-09-07T00:36:20.594Z,8.85
2022-09-07T00:38:49.707Z,8.83
2022-09-07T00:41:19.750Z,8.81
2022-09-07T00:43:50.693Z,8.78
2022-09-07T00:46:21.659Z,8.73
2022-09-07T00:48:55.621Z,8.68
2022-09-07T00:51:29.124Z,8.62
2022-09-07T00:54:01.061Z,8.55
2022-09-07T00:56:33.835Z,8.50
2022-09-07T00:59:02.911Z,8.45
2022-09-07T01:01:33.042Z,8.39
2022-09-07T01:04:02.426Z,8.34
2022-09-07T01:06:33.979Z,8.28
2022-09-07T01:09:06.061Z,8.23
2022-09-07T01:11:36.137Z,8.16
2022-09-07T01:14:07.205Z,8.12
2022-09-07T01:16:57.994Z,8.09
2022-09-07T01:20:05.505Z,8.07
2022-09-07T01:23:11.562Z,8.05
2022-09-07T01:25:44.843Z,8.02
2022-09-07T01:28:16.963Z,7.99
2022-09-07T01:30:55.116Z,7.97
2022-09-07T01:33:38.840Z,7.92
2022-09-07T01:36:17.243Z,7.88
2022-09-07T01:38:48.342Z,7.83
2022-09-07T01:41:21.062Z,7.79
2022-09-07T01:43:53.249Z,7.74
2022-09-07T01:46:24.825Z,7.72
2022-09-07T01:48:56.095Z,7.70
2022-09-07T01:51:28.321Z,7.68
2022-09-07T01:53:59.237Z,7.65
2022-09-07T01:56:31.825Z,7.62
2022-09-07T01:59:04.866Z,7.59
2022-09-07T02:01:39.173Z,7.57
2022-09-07T02:04:10.504Z,7.54
2022-09-07T02:06:43.014Z,7.52
2022-09-07T02:09:14.609Z,7.50
2022-09-07T02:11:47.828Z,7.48
2022-09-07T02:14:20.283Z,7.45
2022-09-07T02:16:53.004Z,7.43
2022-09-07T02:19:22.679Z,7.39
2022-09-07T02:21:56.571Z,7.36
2022-09-07T02:24:28.627Z,7.33
2022-09-07T02:26:59.005Z,7.31
2022-09-07T02:29:30.839Z,7.29
2022-09-07T02:32:00.148Z,7.28
2022-09-07T02:34:29.277Z,7.28
2022-09-07T02:36:58.930Z,7.27
2022-09-07T02:39:27.859Z,7.26
2022-09-07T02:41:56.983Z,7.24
2022-09-07T02:44:28.085Z,7.22
2022-09-07T02:47:16.793Z,7.19
2022-09-07T02:50:18.134Z,7.17
2022-09-07T02:52:56.651Z,7.14
2022-09-07T02:55:35.159Z,7.15
2022-09-07T02:58:14.227Z,7.15
2022-09-07T03:00:47.699Z,7.15
2022-09-07T03:03:22.006Z,7.16
2022-09-07T03:05:52.417Z,7.16
2022-09-07T03:08:23.820Z,7.16
2022-09-07T03:10:52.421Z,7.16
2022-09-07T03:13:21.545Z,7.15
2022-09-07T03:15:53.694Z,7.14
2022-09-07T03:18:24.172Z,7.12
2022-09-07T03:20:52.558Z,7.10
2022-09-07T03:23:21.018Z,7.10
2022-09-07T03:25:49.775Z,7.11
2022-09-07T03:28:18.219Z,7.11
2022-09-07T03:30:47.007Z,7.12
2022-09-07T03:33:16.481Z,7.12
2022-09-07T03:35:45.437Z,7.12
2022-09-07T03:38:14.081Z,7.11
2022-09-07T03:40:42.357Z,7.09
2022-09-07T03:43:10.664Z,7.05
2022-09-07T03:45:38.884Z,7.04
2022-09-07T03:48:07.502Z,7.01
2022-09-07T03:50:35.932Z,6.98
2022-09-07T03:53:04.274Z,6.95
2022-09-07T03:55:32.797Z,6.93
2022-09-07T03:58:01.026Z,6.91
2022-09-07T04:00:29.263Z,6.90
2022-09-07T04:02:57.790Z,6.90
2022-09-07T04:05:26.323Z,6.87
2022-09-07T04:07:54.695Z,6.85
2022-09-07T04:10:23.291Z,6.82
2022-09-07T04:12:51.537Z,6.80
2022-09-07T04:15:19.784Z,6.79
2022-09-07T04:17:48.511Z,6.79
2022-09-07T04:20:17.001Z,6.81
2022-09-07T04:22:51.393Z,6.83
2022-09-07T04:25:22.200Z,6.87
2022-09-07T04:27:50.664Z,6.89
2022-09-07T04:30:19.047Z,6.92
2022-09-07T04:32:47.704Z,6.96
2022-09-07T04:35:16.293Z,7.00
2022-09-07T04:37:44.698Z,7.05
2022-09-07T04:40:13.487Z,7.09
2022-09-07T04:42:41.925Z,7.15
2022-09-07T04:45:11.500Z,7.21
2022-09-07T04:47:40.038Z,7.27
2022-09-07T04:50:10.104Z,7.32
2022-09-07T04:52:38.399Z,7.40
2022-09-07T04:55:08.425Z,7.47
2022-09-07T04:57:36.951Z,7.55
2022-09-07T05:00:08.745Z,7.63
2022-09-07T05:02:37.745Z,7.70
2022-09-07T05:05:07.858Z,7.77
2022-09-07T05:07:36.205Z,7.83
2022-09-07T05:10:05.702Z,7.89
2022-09-07T05:12:34.090Z,7.95
2022-09-07T05:15:02.672Z,8.02
2022-09-07T05:17:31.076Z,8.08
2022-09-07T05:19:59.462Z,8.14
2022-09-07T05:22:27.658Z,8.19
2022-09-07T05:24:56.138Z,8.25
2022-09-07T05:27:24.437Z,8.31
2022-09-07T05:32:29.788Z,8.43
2022-09-07T05:34:58.204Z,8.49
2022-09-07T05:37:26.731Z,8.53
2022-09-07T05:39:56.346Z,8.59
2022-09-07T05:42:25.274Z,8.65
2022-09-07T05:44:53.652Z,8.71
2022-09-07T05:47:22.135Z,8.77
2022-09-07T05:49:51.989Z,8.85
2022-09-07T05:52:23.578Z,8.93
2022-09-07T05:54:54.309Z,9.01
2022-09-07T05:57:25.486Z,9.12
2022-09-07T05:59:54.062Z,9.22
2022-09-07T06:02:22.513Z,9.34
2022-09-07T06:04:51.196Z,9.44
2022-09-07T06:07:23.411Z,9.53
2022-09-07T06:12:41.171Z,9.73
2022-09-07T06:15:11.898Z,9.82
2022-09-07T06:17:40.468Z,9.91
2022-09-07T06:20:10.490Z,10.00
2022-09-07T06:22:39.267Z,10.09
2022-09-07T06:25:08.788Z,10.18
2022-09-07T06:27:37.245Z,10.28
2022-09-07T06:30:07.287Z,10.36
2022-09-07T06:32:45.695Z,10.45
2022-09-07T06:35:15.443Z,10.55
2022-09-07T06:37:44.118Z,10.65
2022-09-07T06:40:12.891Z,10.75
2022-09-07T06:42:41.358Z,10.83
2022-09-07T06:45:10.572Z,10.91
2022-09-07T06:47:38.830Z,11.02
2022-09-07T06:50:09.260Z,11.11
2022-09-07T06:55:27.587Z,11.35
2022-09-07T06:57:56.000Z,11.46
2022-09-07T07:00:24.853Z,11.58
2022-09-07T07:02:53.513Z,11.71
2022-09-07T07:05:21.917Z,11.85
2022-09-07T07:07:50.097Z,11.99
2022-09-07T07:10:23.635Z,12.13
2022-09-07T07:12:56.446Z,12.26
2022-09-07T07:15:26.073Z,12.39
2022-09-07T07:17:59.159Z,12.51
2022-09-07T07:20:31.029Z,12.64
2022-09-07T07:22:59.372Z,12.78
2022-09-07T07:25:27.626Z,12.92
2022-09-07T07:27:56.797Z,13.08
2022-09-07T07:30:25.637Z,13.26
2022-09-07T07:32:54.186Z,13.45
2022-09-07T07:35:23.209Z,13.64
2022-09-07T07:40:42.361Z,14.07
2022-09-07T07:43:10.826Z,14.28
2022-09-07T07:46:02.501Z,14.53
2022-09-07T07:48:33.758Z,14.81
2022-09-07T07:51:09.807Z,15.05
2022-09-07T07:53:42.383Z,15.31
2022-09-07T07:56:12.297Z,15.58
2022-09-07T07:58:43.831Z,15.82
2022-09-07T08:01:13.499Z,16.05
2022-09-07T08:03:43.519Z,16.28
2022-09-07T08:06:12.904Z,16.52
2022-09-07T08:08:42.115Z,16.75
2022-09-07T08:11:12.257Z,16.94
2022-09-07T08:13:41.838Z,17.16
2022-09-07T08:16:10.648Z,17.37
2022-09-07T08:18:39.643Z,17.58
2022-09-07T08:21:11.890Z,17.76
2022-09-07T08:23:41.469Z,17.94
2022-09-07T08:26:10.148Z,18.11
2022-09-07T08:28:40.167Z,18.25
2022-09-07T08:31:10.385Z,18.29
2022-09-07T08:33:39.671Z,18.37
2022-09-07T08:36:10.631Z,18.47
2022-09-07T08:38:40.137Z,18.63
2022-09-07T08:41:30.738Z,18.77
2022-09-07T08:44:01.604Z,18.96
2022-09-07T08:46:32.894Z,19.12
2022-09-07T08:49:02.653Z,19.24
2022-09-07T08:51:35.533Z,19.41
2022-09-07T08:54:05.382Z,19.60
2022-09-07T08:56:37.640Z,19.71
2022-09-07T08:59:13.783Z,19.81
2022-09-07T09:02:26.330Z,19.94
2022-09-07T09:04:33.663Z,20.13
2022-09-07T09:07:09.308Z,20.33
2022-09-07T09:09:52.356Z,20.51
2022-09-07T09:12:28.608Z,20.67
2022-09-07T09:15:10.077Z,20.87
2022-09-07T09:17:41.195Z,20.96
2022-09-07T09:20:18.833Z,20.97
2022-09-07T09:22:47.060Z,21.09
2022-09-07T09:25:19.890Z,21.17
2022-09-07T09:27:49.091Z,21.28
2022-09-07T09:30:19.159Z,21.31
2022-09-07T09:32:49.399Z,21.37
2022-09-07T09:35:23.687Z,21.45
2022-09-07T09:37:52.357Z,21.66
2022-09-07T09:40:24.561Z,21.84
2022-09-07T09:43:01.214Z,21.86
2022-09-07T09:46:12.078Z,21.98
2022-09-07T09:48:24.150Z,22.11
2022-09-07T09:53:52.746Z,22.29
2022-09-07T09:56:22.672Z,22.37
2022-09-07T09:59:56.900Z,22.52
2022-09-07T10:04:34.414Z,22.85
2022-09-07T10:07:14.550Z,22.87
2022-09-07T10:09:49.206Z,22.81
2022-09-07T10:12:26.019Z,22.79
2022-09-07T10:14:55.987Z,22.79
2022-09-07T10:17:28.974Z,22.83
2022-09-07T10:20:01.084Z,22.97
2022-09-07T10:22:35.144Z,23.16
2022-09-07T10:25:09.726Z,23.29
2022-09-07T10:27:40.812Z,23.26
2022-09-07T10:30:15.246Z,23.21
2022-09-07T10:33:00.074Z,23.28
2022-09-07T10:35:30.061Z,23.50
2022-09-07T10:38:09.360Z,23.66
2022-09-07T10:40:41.269Z,23.80
2022-09-07T10:43:21.995Z,23.96
2022-09-07T10:46:02.679Z,24.07
2022-09-07T10:48:36.416Z,24.22
2022-09-07T10:51:13.753Z,24.32
2022-09-07T10:54:30.028Z,24.31
2022-09-07T10:56:45.208Z,24.40
2022-09-07T11:00:07.607Z,24.62
2022-09-07T11:02:23.193Z,24.88
2022-09-07T11:05:00.742Z,25.07
2022-09-07T11:07:47.485Z,25.31
2022-09-07T11:10:22.097Z,25.49
2022-09-07T11:12:54.454Z,25.50
2022-09-07T11:15:27.687Z,25.50
2022-09-07T11:17:59.540Z,25.51
2022-09-07T11:20:30.654Z,25.53
2022-09-07T11:23:06.762Z,25.64
2022-09-07T11:25:39.951Z,25.68
2022-09-07T11:28:14.057Z,25.70
2022-09-07T11:30:45.993Z,25.79
2022-09-07T11:33:19.394Z,25.98
2022-09-07T11:35:52.130Z,26.21
2022-09-07T11:38:25.977Z,26.39
2022-09-07T11:41:14.010Z,26.43
2022-09-07T11:43:45.300Z,26.52
2022-09-07T11:46:16.181Z,26.57
2022-09-07T11:48:48.208Z,26.47
2022-09-07T11:51:21.599Z,26.36
2022-09-07T11:53:53.109Z,26.43
2022-09-07T11:56:27.069Z,26.56
2022-09-07T11:59:15.445Z,26.85
2022-09-07T12:01:53.323Z,26.91
2022-09-07T12:04:30.678Z,26.82
2022-09-07T12:07:23.936Z,26.93
2022-09-07T12:10:18.897Z,27.14
2022-09-07T12:13:05.028Z,27.17
2022-09-07T12:15:39.869Z,27.30
2022-09-07T12:18:25.137Z,27.44
2022-09-07T12:20:54.750Z,27.51
2022-09-07T12:23:28.761Z,27.61
2022-09-07T12:26:30.077Z,27.63
2022-09-07T12:29:19.938Z,27.55
2022-09-07T12:31:59.708Z,27.83
2022-09-07T12:34:52.435Z,28.19
2022-09-07T12:37:42.109Z,28.47
2022-09-07T12:40:47.296Z,28.66
2022-09-07T12:43:48.830Z,28.77
2022-09-07T12:46:20.797Z,28.84
2022-09-07T12:48:56.144Z,28.85
2022-09-07T12:54:31.200Z,28.97
2022-09-07T12:57:31.927Z,29.26
2022-09-07T13:00:06.497Z,29.50
2022-09-07T13:03:01.390Z,29.65
2022-09-07T13:05:43.242Z,29.80
2022-09-07T13:08:29.284Z,29.96
2022-09-07T13:11:16.068Z,30.26
2022-09-07T13:14:11.392Z,30.54
2022-09-07T13:20:05.455Z,30.98
2022-09-07T13:23:08.056Z,31.17
2022-09-07T13:25:52.245Z,31.30
2022-09-07T13:28:28.551Z,31.23
2022-09-07T13:31:21.849Z,31.40
2022-09-07T13:33:52.167Z,31.70
2022-09-07T13:36:33.805Z,31.88
2022-09-07T13:39:11.094Z,32.31
2022-09-07T13:41:46.962Z,32.71
2022-09-07T13:44:25.866Z,33.11
2022-09-07T13:47:13.509Z,33.32
2022-09-07T13:50:05.091Z,33.63
2022-09-07T13:52:46.880Z,34.01
2022-09-07T13:55:26.144Z,34.51
2022-09-07T13:58:06.501Z,34.80
2022-09-07T14:00:35.390Z,35.07
2022-09-07T14:03:06.905Z,35.27
2022-09-07T14:05:35.688Z,35.45
2022-09-07T14:08:04.483Z,35.54
2022-09-07T14:10:33.105Z,35.27
2022-09-07T14:13:10.613Z,34.98
2022-09-07T14:15:42.471Z,34.75
2022-09-07T14:18:13.515Z,34.38
2022-09-07T14:20:45.441Z,34.22
2022-09-07T14:23:22.181Z,34.13
2022-09-07T14:26:16.602Z,34.50
2022-09-07T14:28:49.360Z,34.99
2022-09-07T14:31:20.568Z,35.05
2022-09-07T14:33:52.616Z,35.00
2022-09-07T14:36:42.344Z,35.29
2022-09-07T14:39:13.499Z,35.57
2022-09-07T14:41:42.981Z,35.71
2022-09-07T14:44:42.923Z,35.88
2022-09-07T14:47:25.002Z,36.00
2022-09-07T14:49:54.156Z,35.78
2022-09-07T14:52:31.088Z,35.48
2022-09-07T14:55:00.620Z,35.46
2022-09-07T14:57:31.848Z,35.90
2022-09-07T15:00:28.659Z,36.40
2022-09-07T15:02:57.571Z,36.73
2022-09-07T15:05:28.388Z,36.98
2022-09-07T15:07:58.664Z,37.30
2022-09-07T15:10:30.869Z,37.53
2022-09-07T15:12:58.978Z,37.97
2022-09-07T15:15:29.201Z,38.21
2022-09-07T15:18:05.863Z,38.52
2022-09-07T15:20:42.854Z,38.67
2022-09-07T15:23:12.928Z,38.63
2022-09-07T15:25:46.514Z,38.42
2022-09-07T15:34:03.323Z,36.18
2022-09-07T15:36:31.992Z,34.61
2022-09-07T15:39:01.352Z,33.18
2022-09-07T15:41:30.283Z,31.93
2022-09-07T15:43:59.550Z,30.73
2022-09-07T15:46:27.861Z,29.58
2022-09-07T15:48:56.842Z,28.55
2022-09-07T15:54:17.383Z,26.66
2022-09-07T15:57:49.363Z,25.91
2022-09-07T15:59:35.461Z,25.25
2022-09-07T16:03:04.503Z,24.82
2022-09-07T16:04:53.079Z,24.44
2022-09-07T16:07:22.379Z,24.09
2022-09-07T16:09:52.508Z,23.76
2022-09-07T16:15:12.791Z,23.03
2022-09-07T16:17:47.774Z,22.75
2022-09-07T16:20:17.365Z,22.48
2022-09-07T16:25:34.948Z,21.99
2022-09-07T16:28:05.664Z,21.80
2022-09-07T16:30:34.636Z,21.65
2022-09-07T16:33:03.121Z,21.50
2022-09-07T16:35:32.510Z,21.33
2022-09-07T16:40:50.987Z,21.01
2022-09-07T16:43:19.310Z,20.89
2022-09-07T16:46:03.061Z,20.76
2022-09-07T16:48:31.219Z,20.61
2022-09-07T16:51:02.264Z,20.48
2022-09-07T16:53:32.886Z,20.34
2022-09-07T16:56:02.079Z,20.21
2022-09-07T16:58:38.954Z,20.08
2022-09-07T17:01:12.680Z,19.94
2022-09-07T17:03:41.913Z,19.84
2022-09-07T17:06:13.317Z,19.75
2022-09-07T17:08:43.969Z,19.66
2022-09-07T17:11:19.973Z,19.53
2022-09-07T17:13:48.942Z,19.42
2022-09-07T17:16:19.811Z,19.30
2022-09-07T17:21:39.990Z,19.09
2022-09-07T17:24:09.842Z,18.98
2022-09-07T17:26:38.249Z,18.89
2022-09-07T17:29:07.776Z,18.81
2022-09-07T17:34:26.920Z,18.65
2022-09-07T17:36:55.498Z,18.59
2022-09-07T17:39:23.856Z,18.52
2022-09-07T17:41:53.960Z,18.45
2022-09-07T17:44:24.060Z,18.37
2022-09-07T17:46:52.403Z,18.29
2022-09-07T17:49:20.879Z,18.20
2022-09-07T17:51:49.323Z,18.09
2022-09-07T17:54:26.859Z,18.01
2022-09-07T17:56:55.334Z,17.94
2022-09-07T18:02:16.675Z,17.85
2022-09-07T18:04:45.435Z,17.80
2022-09-07T18:07:14.062Z,17.75
2022-09-07T18:09:42.521Z,17.70
2022-09-07T18:12:11.028Z,17.65
2022-09-07T18:14:40.160Z,17.61
2022-09-07T18:17:09.485Z,17.57
2022-09-07T18:19:38.549Z,17.52
2022-09-07T18:22:08.125Z,17.45
2022-09-07T18:24:37.514Z,17.39
2022-09-07T18:27:07.546Z,17.35
2022-09-07T18:29:37.029Z,17.30
2022-09-07T18:32:08.878Z,17.26
2022-09-07T18:34:41.317Z,17.22
2022-09-07T18:37:12.148Z,17.17
2022-09-07T18:39:41.340Z,17.12
2022-09-07T18:42:09.955Z,17.07
2022-09-07T18:47:29.366Z,16.99
2022-09-07T18:50:21.075Z,16.94
2022-09-07T18:52:52.116Z,16.89
2022-09-07T18:55:21.659Z,16.85
2022-09-07T18:57:49.869Z,16.81
2022-09-07T19:00:18.548Z,16.75
2022-09-07T19:02:50.620Z,16.72
2022-09-07T19:08:08.058Z,16.63
2022-09-07T19:10:41.026Z,16.59
2022-09-07T19:13:09.683Z,16.55
2022-09-07T19:15:38.676Z,16.50
2022-09-07T19:18:08.141Z,16.46
2022-09-07T19:20:36.770Z,16.40
2022-09-07T19:23:06.019Z,16.36
2022-09-07T19:25:34.686Z,16.32
2022-09-07T19:28:05.700Z,16.28
2022-09-07T19:30:36.169Z,16.24
2022-09-07T19:33:10.440Z,16.18
2022-09-07T19:35:38.684Z,16.12
2022-09-07T19:38:07.056Z,16.08
2022-09-07T19:40:35.845Z,16.04
2022-09-07T19:43:04.708Z,16.01
2022-09-07T19:45:36.751Z,15.97
2022-09-07T19:48:10.202Z,15.93
2022-09-07T19:50:39.554Z,15.89
2022-09-07T19:53:08.697Z,15.83
2022-09-07T19:55:37.288Z,15.77
2022-09-07T19:58:09.274Z,15.72
2022-09-07T20:00:39.525Z,15.67
2022-09-07T20:03:09.305Z,15.62
2022-09-07T20:05:41.893Z,15.56
2022-09-07T20:08:10.290Z,15.50
2022-09-07T20:10:41.387Z,15.45
2022-09-07T20:13:10.488Z,15.40
2022-09-07T20:15:41.624Z,15.36
2022-09-07T20:18:10.643Z,15.32
2022-09-07T20:20:38.940Z,15.28
2022-09-07T20:23:07.314Z,15.24
2022-09-07T20:25:35.817Z,15.21
2022-09-07T20:28:04.379Z,15.18
2022-09-07T20:30:33.871Z,15.14
2022-09-07T20:33:02.804Z,15.09
2022-09-07T20:35:32.612Z,15.05
2022-09-07T20:38:02.746Z,15.00
2022-09-07T20:40:32.951Z,14.99
2022-09-07T20:43:01.324Z,14.96
2022-09-07T20:45:31.810Z,14.93
2022-09-07T20:48:00.455Z,14.89
2022-09-07T20:50:28.658Z,14.86
2022-09-07T20:52:57.135Z,14.82
2022-09-07T20:55:25.478Z,14.78
2022-09-07T20:57:53.748Z,14.74
2022-09-07T21:00:22.638Z,14.71
2022-09-07T21:02:53.053Z,14.67
2022-09-07T21:05:21.490Z,14.64
2022-09-07T21:07:50.150Z,14.60
2022-09-07T21:10:19.020Z,14.57
2022-09-07T21:12:47.267Z,14.53
2022-09-07T21:15:15.698Z,14.49
2022-09-07T21:17:44.482Z,14.46
2022-09-07T21:20:15.114Z,14.43
2022-09-07T21:22:43.538Z,14.40
2022-09-07T21:25:11.861Z,14.37
2022-09-07T21:27:40.152Z,14.33
2022-09-07T21:30:10.306Z,14.27
2022-09-07T21:32:39.901Z,14.21
2022-09-07T21:35:09.872Z,14.14
2022-09-07T21:37:38.308Z,14.05
2022-09-07T21:40:08.686Z,13.97
2022-09-07T21:42:37.412Z,13.91
2022-09-07T21:45:08.581Z,13.85
2022-09-07T21:47:37.355Z,13.78
2022-09-07T21:50:06.966Z,13.73
2022-09-07T21:52:35.260Z,13.67
2022-09-07T21:55:03.921Z,13.62
2022-09-07T21:57:33.203Z,13.56
2022-09-07T22:00:01.855Z,13.50
2022-09-07T22:02:30.353Z,13.44
2022-09-07T22:04:58.661Z,13.39
2022-09-07T22:07:26.910Z,13.33
2022-09-07T22:09:55.498Z,13.28
2022-09-07T22:12:23.904Z,13.23
2022-09-07T22:14:52.527Z,13.19
2022-09-07T22:17:20.913Z,13.17
2022-09-07T22:19:49.207Z,13.15
2022-09-07T22:22:17.342Z,13.13
2022-09-07T22:24:45.560Z,13.12
2022-09-07T22:27:13.917Z,13.10
2022-09-07T22:29:42.146Z,13.10
2022-09-07T22:32:10.363Z,13.09
2022-09-07T22:34:38.580Z,13.08
2022-09-07T22:37:06.903Z,13.06
2022-09-07T22:39:35.270Z,13.06
2022-09-07T22:42:03.704Z,13.03
2022-09-07T22:44:32.040Z,13.02
2022-09-07T22:47:00.556Z,13.00
2022-09-07T22:49:28.967Z,12.96
2022-09-07T22:51:57.256Z,12.93
2022-09-07T22:54:25.875Z,12.90
2022-09-07T22:56:54.279Z,12.87
2022-09-07T22:59:22.439Z,12.83
2022-09-07T23:01:51.269Z,12.80
2022-09-07T23:04:20.354Z,12.74
2022-09-07T23:06:48.839Z,12.67
2022-09-07T23:09:18.503Z,12.59
2022-09-07T23:11:47.495Z,12.51
2022-09-07T23:14:17.278Z,12.43
2022-09-07T23:16:46.270Z,12.35
2022-09-07T23:19:15.972Z,12.27
2022-09-07T23:21:44.905Z,12.21
2022-09-07T23:24:15.446Z,12.14
2022-09-07T23:26:43.810Z,12.09
2022-09-07T23:29:13.105Z,12.05
2022-09-07T23:31:42.043Z,12.00
2022-09-07T23:34:10.604Z,11.97
2022-09-07T23:36:38.920Z,11.93
2022-09-07T23:39:07.523Z,11.90
2022-09-07T23:41:35.714Z,11.87
2022-09-07T23:44:04.805Z,11.85
2022-09-07T23:46:33.415Z,11.84
2022-09-07T23:49:01.873Z,11.82
2022-09-07T23:51:30.407Z,11.83
2022-09-07T23:53:58.915Z,11.82
2022-09-07T23:56:27.495Z,11.81
2022-09-07T23:58:55.766Z,11.81
